sensor_id;sensor_type;location;lat;lon;timestamp;P1;durP1;ratioP1;P2;durP2;ratioP2
17214;SDS011;8723;51.502;6.918;2022-08-19T00:00:38;5.90;;;5.22;;
17214;SDS011;8723;51.502;6.918;2022-08-19T00:03:06;5.45;;;4.95;;
17214;SDS011;8723;51.502;6.918;2022-08-19T00:05:34;5.95;;;5.45;;
17214;SDS011;8723;51.502;6.918;2022-08-19T00:08:02;5.28;;;4.88;;
17214;SDS011;8723;51.502;6.918;2022-08-19T00:10:29;5.72;;;5.03;;
17214;SDS011;8723;51.502;6.918;2022-08-19T00:12:57;5.90;;;5.40;;
17214;SDS011;8723;51.502;6.918;2022-08-19T00:15:24;5.40;;;4.90;;
17214;SDS011;8723;51.502;6.918;2022-08-19T00:17:52;6.10;;;5.43;;
17214;SDS011;8723;51.502;6.918;2022-08-19T00:20:21;6.00;;;5.50;;
17214;SDS011;8723;51.502;6.918;2022-08-19T00:22:49;5.70;;;5.00;;
17214;SDS011;8723;51.502;6.918;2022-08-19T00:25:16;5.95;;;5.45;;
17214;SDS011;8723;51.502;6.918;2022-08-19T00:27:43;6.30;;;5.78;;
17214;SDS011;8723;51.502;6.918;2022-08-19T00:30:12;6.35;;;5.47;;
17214;SDS011;8723;51.502;6.918;2022-08-19T00:32:39;6.40;;;5.80;;
17214;SDS011;8723;51.502;6.918;2022-08-19T00:35:07;5.88;;;5.13;;
17214;SDS011;8723;51.502;6.918;2022-08-19T00:37:35;6.38;;;5.78;;
17214;SDS011;8723;51.502;6.918;2022-08-19T00:40:04;5.80;;;5.22;;
17214;SDS011;8723;51.502;6.918;2022-08-19T00:42:32;6.10;;;5.60;;
17214;SDS011;8723;51.502;6.918;2022-08-19T00:44:59;6.18;;;5.63;;
17214;SDS011;8723;51.502;6.918;2022-08-19T00:47:26;5.65;;;5.15;;
17214;SDS011;8723;51.502;6.918;2022-08-19T00:49:55;6.33;;;5.77;;
17214;SDS011;8723;51.502;6.918;2022-08-19T00:52:23;6.82;;;5.53;;
17214;SDS011;8723;51.502;6.918;2022-08-19T00:54:52;6.15;;;5.65;;
17214;SDS011;8723;51.502;6.918;2022-08-19T00:57:22;5.82;;;5.32;;
17214;SDS011;8723;51.502;6.918;2022-08-19T00:59:51;7.43;;;6.13;;
17214;SDS011;8723;51.502;6.918;2022-08-19T01:02:19;6.20;;;5.60;;
17214;SDS011;8723;51.502;6.918;2022-08-19T01:04:46;6.93;;;6.25;;
17214;SDS011;8723;51.502;6.918;2022-08-19T01:07:13;6.50;;;5.90;;
17214;SDS011;8723;51.502;6.918;2022-08-19T01:09:41;6.80;;;6.17;;
17214;SDS011;8723;51.502;6.918;2022-08-19T01:12:08;6.85;;;6.25;;
17214;SDS011;8723;51.502;6.918;2022-08-19T01:14:37;7.03;;;6.43;;
17214;SDS011;8723;51.502;6.918;2022-08-19T01:17:06;7.35;;;6.65;;
17214;SDS011;8723;51.502;6.918;2022-08-19T01:19:35;7.03;;;6.40;;
17214;SDS011;8723;51.502;6.918;2022-08-19T01:22:04;7.03;;;6.38;;
17214;SDS011;8723;51.502;6.918;2022-08-19T01:24:34;7.13;;;6.53;;
17214;SDS011;8723;51.502;6.918;2022-08-19T01:27:03;6.70;;;6.20;;
17214;SDS011;8723;51.502;6.918;2022-08-19T01:29:30;7.18;;;6.50;;
17214;SDS011;8723;51.502;6.918;2022-08-19T01:31:57;7.03;;;6.43;;
17214;SDS011;8723;51.502;6.918;2022-08-19T01:34:25;7.45;;;6.75;;
17214;SDS011;8723;51.502;6.918;2022-08-19T01:36:52;7.60;;;6.90;;
17214;SDS011;8723;51.502;6.918;2022-08-19T01:39:21;6.72;;;6.13;;
17214;SDS011;8723;51.502;6.918;2022-08-19T01:41:50;8.63;;;7.03;;
17214;SDS011;8723;51.502;6.918;2022-08-19T01:44:19;7.57;;;6.75;;
17214;SDS011;8723;51.502;6.918;2022-08-19T01:46:49;7.13;;;6.43;;
17214;SDS011;8723;51.502;6.918;2022-08-19T01:49:18;7.38;;;6.78;;
17214;SDS011;8723;51.502;6.918;2022-08-19T01:51:46;7.60;;;6.82;;
17214;SDS011;8723;51.502;6.918;2022-08-19T01:54:13;7.38;;;6.78;;
17214;SDS011;8723;51.502;6.918;2022-08-19T01:56:41;7.22;;;6.53;;
17214;SDS011;8723;51.502;6.918;2022-08-19T01:59:10;10.05;;;7.75;;
17214;SDS011;8723;51.502;6.918;2022-08-19T02:01:39;7.53;;;6.83;;
17214;SDS011;8723;51.502;6.918;2022-08-19T02:04:06;7.50;;;6.80;;
17214;SDS011;8723;51.502;6.918;2022-08-19T02:06:34;7.50;;;6.90;;
17214;SDS011;8723;51.502;6.918;2022-08-19T02:09:01;7.65;;;7.05;;
17214;SDS011;8723;51.502;6.918;2022-08-19T02:11:29;8.48;;;7.30;;
17214;SDS011;8723;51.502;6.918;2022-08-19T02:13:58;8.32;;;7.60;;
17214;SDS011;8723;51.502;6.918;2022-08-19T02:16:28;8.48;;;7.50;;
17214;SDS011;8723;51.502;6.918;2022-08-19T02:18:55;8.70;;;7.90;;
17214;SDS011;8723;51.502;6.918;2022-08-19T02:21:25;8.63;;;7.83;;
17214;SDS011;8723;51.502;6.918;2022-08-19T02:23:52;8.90;;;8.02;;
17214;SDS011;8723;51.502;6.918;2022-08-19T02:26:20;8.18;;;7.47;;
17214;SDS011;8723;51.502;6.918;2022-08-19T02:28:48;8.55;;;7.60;;
17214;SDS011;8723;51.502;6.918;2022-08-19T02:31:16;8.68;;;7.80;;
17214;SDS011;8723;51.502;6.918;2022-08-19T02:33:45;8.30;;;7.60;;
17214;SDS011;8723;51.502;6.918;2022-08-19T02:36:13;8.35;;;7.60;;
17214;SDS011;8723;51.502;6.918;2022-08-19T02:38:41;8.25;;;7.45;;
17214;SDS011;8723;51.502;6.918;2022-08-19T02:41:11;8.75;;;7.72;;
17214;SDS011;8723;51.502;6.918;2022-08-19T02:43:39;9.10;;;8.25;;
17214;SDS011;8723;51.502;6.918;2022-08-19T02:46:14;9.23;;;8.33;;
17214;SDS011;8723;51.502;6.918;2022-08-19T02:48:42;9.43;;;8.52;;
17214;SDS011;8723;51.502;6.918;2022-08-19T02:51:16;10.20;;;9.20;;
17214;SDS011;8723;51.502;6.918;2022-08-19T02:53:44;9.85;;;8.82;;
17214;SDS011;8723;51.502;6.918;2022-08-19T02:56:11;9.63;;;8.80;;
17214;SDS011;8723;51.502;6.918;2022-08-19T02:58:38;8.65;;;7.82;;
17214;SDS011;8723;51.502;6.918;2022-08-19T03:01:06;9.43;;;8.35;;
17214;SDS011;8723;51.502;6.918;2022-08-19T03:03:33;9.93;;;8.77;;
17214;SDS011;8723;51.502;6.918;2022-08-19T03:06:04;9.20;;;8.30;;
17214;SDS011;8723;51.502;6.918;2022-08-19T03:08:33;7.95;;;6.80;;
17214;SDS011;8723;51.502;6.918;2022-08-19T03:11:00;7.47;;;6.77;;
17214;SDS011;8723;51.502;6.918;2022-08-19T03:13:27;7.63;;;6.93;;
17214;SDS011;8723;51.502;6.918;2022-08-19T03:15:55;8.15;;;7.38;;
17214;SDS011;8723;51.502;6.918;2022-08-19T03:18:22;7.85;;;7.15;;
17214;SDS011;8723;51.502;6.918;2022-08-19T03:20:50;8.25;;;7.50;;
17214;SDS011;8723;51.502;6.918;2022-08-19T03:23:19;8.90;;;8.00;;
17214;SDS011;8723;51.502;6.918;2022-08-19T03:25:51;8.45;;;7.65;;
17214;SDS011;8723;51.502;6.918;2022-08-19T03:28:19;9.25;;;8.45;;
17214;SDS011;8723;51.502;6.918;2022-08-19T03:30:54;9.02;;;8.18;;
17214;SDS011;8723;51.502;6.918;2022-08-19T03:33:23;10.50;;;8.13;;
17214;SDS011;8723;51.502;6.918;2022-08-19T03:36:03;9.20;;;8.30;;
17214;SDS011;8723;51.502;6.918;2022-08-19T03:38:32;9.52;;;8.52;;
17214;SDS011;8723;51.502;6.918;2022-08-19T03:41:03;9.50;;;8.50;;
17214;SDS011;8723;51.502;6.918;2022-08-19T03:43:31;9.40;;;8.43;;
17214;SDS011;8723;51.502;6.918;2022-08-19T03:46:00;9.50;;;8.60;;
17214;SDS011;8723;51.502;6.918;2022-08-19T03:48:29;9.50;;;8.60;;
17214;SDS011;8723;51.502;6.918;2022-08-19T03:50:56;9.60;;;8.63;;
17214;SDS011;8723;51.502;6.918;2022-08-19T03:53:24;9.48;;;8.52;;
17214;SDS011;8723;51.502;6.918;2022-08-19T03:55:52;9.05;;;8.25;;
17214;SDS011;8723;51.502;6.918;2022-08-19T03:58:20;9.80;;;8.85;;
17214;SDS011;8723;51.502;6.918;2022-08-19T04:00:48;9.15;;;8.30;;
17214;SDS011;8723;51.502;6.918;2022-08-19T04:03:15;9.43;;;8.55;;
17214;SDS011;8723;51.502;6.918;2022-08-19T04:05:43;11.00;;;9.23;;
17214;SDS011;8723;51.502;6.918;2022-08-19T04:08:10;9.35;;;8.48;;
17214;SDS011;8723;51.502;6.918;2022-08-19T04:10:38;9.87;;;8.97;;
17214;SDS011;8723;51.502;6.918;2022-08-19T04:13:05;10.00;;;9.00;;
17214;SDS011;8723;51.502;6.918;2022-08-19T04:15:38;9.80;;;8.82;;
17214;SDS011;8723;51.502;6.918;2022-08-19T04:18:06;10.17;;;9.17;;
17214;SDS011;8723;51.502;6.918;2022-08-19T04:20:38;10.82;;;9.82;;
17214;SDS011;8723;51.502;6.918;2022-08-19T04:23:05;11.13;;;10.13;;
17214;SDS011;8723;51.502;6.918;2022-08-19T04:25:35;11.07;;;9.95;;
17214;SDS011;8723;51.502;6.918;2022-08-19T04:28:02;11.05;;;10.05;;
17214;SDS011;8723;51.502;6.918;2022-08-19T04:30:30;12.25;;;11.05;;
17214;SDS011;8723;51.502;6.918;2022-08-19T04:32:58;11.88;;;10.73;;
17214;SDS011;8723;51.502;6.918;2022-08-19T04:35:25;12.57;;;11.30;;
17214;SDS011;8723;51.502;6.918;2022-08-19T04:37:53;14.45;;;11.57;;
17214;SDS011;8723;51.502;6.918;2022-08-19T04:40:20;13.38;;;12.18;;
17214;SDS011;8723;51.502;6.918;2022-08-19T04:43:07;13.90;;;12.50;;
17214;SDS011;8723;51.502;6.918;2022-08-19T04:45:37;13.63;;;12.33;;
17214;SDS011;8723;51.502;6.918;2022-08-19T04:48:05;13.45;;;12.15;;
17214;SDS011;8723;51.502;6.918;2022-08-19T04:50:32;14.40;;;12.93;;
17214;SDS011;8723;51.502;6.918;2022-08-19T04:52:59;14.75;;;13.35;;
17214;SDS011;8723;51.502;6.918;2022-08-19T04:55:27;14.43;;;13.00;;
17214;SDS011;8723;51.502;6.918;2022-08-19T04:57:54;15.73;;;14.23;;
17214;SDS011;8723;51.502;6.918;2022-08-19T05:00:21;15.68;;;14.05;;
17214;SDS011;8723;51.502;6.918;2022-08-19T05:02:49;16.10;;;14.60;;
17214;SDS011;8723;51.502;6.918;2022-08-19T05:05:17;15.63;;;14.07;;
17214;SDS011;8723;51.502;6.918;2022-08-19T05:07:45;15.32;;;13.73;;
17214;SDS011;8723;51.502;6.918;2022-08-19T05:10:12;15.18;;;13.73;;
17214;SDS011;8723;51.502;6.918;2022-08-19T05:12:40;15.45;;;13.88;;
17214;SDS011;8723;51.502;6.918;2022-08-19T05:15:07;15.23;;;13.73;;
17214;SDS011;8723;51.502;6.918;2022-08-19T05:17:34;15.07;;;13.52;;
17214;SDS011;8723;51.502;6.918;2022-08-19T05:20:02;14.65;;;13.25;;
17214;SDS011;8723;51.502;6.918;2022-08-19T05:22:48;15.70;;;14.10;;
17214;SDS011;8723;51.502;6.918;2022-08-19T05:25:16;16.53;;;14.83;;
17214;SDS011;8723;51.502;6.918;2022-08-19T05:27:44;16.08;;;14.43;;
17214;SDS011;8723;51.502;6.918;2022-08-19T05:30:11;16.98;;;15.20;;
17214;SDS011;8723;51.502;6.918;2022-08-19T05:32:38;17.20;;;15.20;;
17214;SDS011;8723;51.502;6.918;2022-08-19T05:35:06;17.60;;;15.80;;
17214;SDS011;8723;51.502;6.918;2022-08-19T05:37:34;16.73;;;14.93;;
17214;SDS011;8723;51.502;6.918;2022-08-19T05:40:03;16.17;;;14.47;;
17214;SDS011;8723;51.502;6.918;2022-08-19T05:42:30;15.77;;;14.18;;
17214;SDS011;8723;51.502;6.918;2022-08-19T05:44:57;15.77;;;14.15;;
17214;SDS011;8723;51.502;6.918;2022-08-19T05:47:24;15.25;;;13.90;;
17214;SDS011;8723;51.502;6.918;2022-08-19T05:49:52;17.00;;;14.63;;
17214;SDS011;8723;51.502;6.918;2022-08-19T05:52:19;17.35;;;15.50;;
17214;SDS011;8723;51.502;6.918;2022-08-19T05:54:46;15.23;;;13.65;;
17214;SDS011;8723;51.502;6.918;2022-08-19T05:57:17;17.05;;;15.25;;
17214;SDS011;8723;51.502;6.918;2022-08-19T05:59:45;17.45;;;15.65;;
17214;SDS011;8723;51.502;6.918;2022-08-19T06:02:13;18.48;;;16.13;;
17214;SDS011;8723;51.502;6.918;2022-08-19T06:04:40;18.60;;;16.53;;
17214;SDS011;8723;51.502;6.918;2022-08-19T06:07:08;16.93;;;15.13;;
17214;SDS011;8723;51.502;6.918;2022-08-19T06:09:35;21.60;;;17.73;;
17214;SDS011;8723;51.502;6.918;2022-08-19T06:12:03;20.90;;;16.88;;
17214;SDS011;8723;51.502;6.918;2022-08-19T06:14:32;21.52;;;19.35;;
17214;SDS011;8723;51.502;6.918;2022-08-19T06:17:00;20.45;;;18.35;;
17214;SDS011;8723;51.502;6.918;2022-08-19T06:19:29;23.52;;;21.05;;
17214;SDS011;8723;51.502;6.918;2022-08-19T06:21:57;23.25;;;20.67;;
17214;SDS011;8723;51.502;6.918;2022-08-19T06:24:25;20.55;;;18.55;;
17214;SDS011;8723;51.502;6.918;2022-08-19T06:26:53;22.70;;;20.38;;
17214;SDS011;8723;51.502;6.918;2022-08-19T06:29:22;24.30;;;21.80;;
17214;SDS011;8723;51.502;6.918;2022-08-19T06:31:51;24.05;;;21.45;;
17214;SDS011;8723;51.502;6.918;2022-08-19T06:34:19;26.80;;;23.77;;
17214;SDS011;8723;51.502;6.918;2022-08-19T06:36:47;27.00;;;24.10;;
17214;SDS011;8723;51.502;6.918;2022-08-19T06:39:16;26.20;;;22.92;;
17214;SDS011;8723;51.502;6.918;2022-08-19T06:41:44;26.77;;;24.02;;
17214;SDS011;8723;51.502;6.918;2022-08-19T06:44:12;30.40;;;25.25;;
17214;SDS011;8723;51.502;6.918;2022-08-19T06:46:39;26.45;;;23.73;;
17214;SDS011;8723;51.502;6.918;2022-08-19T06:49:08;29.07;;;26.03;;
17214;SDS011;8723;51.502;6.918;2022-08-19T06:51:38;28.55;;;25.35;;
17214;SDS011;8723;51.502;6.918;2022-08-19T06:54:05;28.77;;;25.77;;
17214;SDS011;8723;51.502;6.918;2022-08-19T06:56:33;25.58;;;22.80;;
17214;SDS011;8723;51.502;6.918;2022-08-19T06:59:01;29.73;;;24.08;;
17214;SDS011;8723;51.502;6.918;2022-08-19T07:01:29;26.40;;;22.73;;
17214;SDS011;8723;51.502;6.918;2022-08-19T07:03:56;30.58;;;27.30;;
17214;SDS011;8723;51.502;6.918;2022-08-19T07:06:24;17.35;;;15.45;;
17214;SDS011;8723;51.502;6.918;2022-08-19T07:08:51;24.15;;;21.15;;
17214;SDS011;8723;51.502;6.918;2022-08-19T07:11:19;36.13;;;30.52;;
17214;SDS011;8723;51.502;6.918;2022-08-19T07:13:46;29.67;;;24.85;;
17214;SDS011;8723;51.502;6.918;2022-08-19T07:16:15;29.77;;;25.83;;
17214;SDS011;8723;51.502;6.918;2022-08-19T07:18:44;30.33;;;27.10;;
17214;SDS011;8723;51.502;6.918;2022-08-19T07:21:12;31.55;;;28.23;;
17214;SDS011;8723;51.502;6.918;2022-08-19T07:23:42;32.45;;;28.30;;
17214;SDS011;8723;51.502;6.918;2022-08-19T07:26:11;32.63;;;29.13;;
17214;SDS011;8723;51.502;6.918;2022-08-19T07:28:39;24.80;;;22.13;;
17214;SDS011;8723;51.502;6.918;2022-08-19T07:31:09;32.30;;;28.77;;
17214;SDS011;8723;51.502;6.918;2022-08-19T07:33:37;31.30;;;27.92;;
17214;SDS011;8723;51.502;6.918;2022-08-19T07:36:06;33.47;;;29.80;;
17214;SDS011;8723;51.502;6.918;2022-08-19T07:38:36;29.58;;;26.48;;
17214;SDS011;8723;51.502;6.918;2022-08-19T07:41:05;34.33;;;30.70;;
17214;SDS011;8723;51.502;6.918;2022-08-19T07:43:33;30.30;;;26.60;;
17214;SDS011;8723;51.502;6.918;2022-08-19T07:46:00;34.83;;;30.60;;
17214;SDS011;8723;51.502;6.918;2022-08-19T07:48:27;36.13;;;31.75;;
17214;SDS011;8723;51.502;6.918;2022-08-19T07:50:56;36.78;;;31.08;;
17214;SDS011;8723;51.502;6.918;2022-08-19T07:53:24;35.65;;;31.85;;
17214;SDS011;8723;51.502;6.918;2022-08-19T07:55:52;38.17;;;34.07;;
17214;SDS011;8723;51.502;6.918;2022-08-19T07:58:21;28.45;;;25.27;;
17214;SDS011;8723;51.502;6.918;2022-08-19T08:00:49;35.00;;;31.25;;
17214;SDS011;8723;51.502;6.918;2022-08-19T08:03:19;33.70;;;30.20;;
17214;SDS011;8723;51.502;6.918;2022-08-19T08:06:06;30.50;;;27.30;;
17214;SDS011;8723;51.502;6.918;2022-08-19T08:08:51;29.10;;;26.15;;
17214;SDS011;8723;51.502;6.918;2022-08-19T08:11:37;27.38;;;24.40;;
17214;SDS011;8723;51.502;6.918;2022-08-19T08:14:06;33.58;;;30.15;;
17214;SDS011;8723;51.502;6.918;2022-08-19T08:16:34;20.55;;;18.38;;
17214;SDS011;8723;51.502;6.918;2022-08-19T08:19:04;20.70;;;17.43;;
17214;SDS011;8723;51.502;6.918;2022-08-19T08:21:31;29.17;;;26.13;;
17214;SDS011;8723;51.502;6.918;2022-08-19T08:23:59;23.60;;;21.10;;
17214;SDS011;8723;51.502;6.918;2022-08-19T08:26:26;24.48;;;22.05;;
17214;SDS011;8723;51.502;6.918;2022-08-19T08:28:53;29.65;;;26.42;;
17214;SDS011;8723;51.502;6.918;2022-08-19T08:31:22;33.60;;;30.00;;
17214;SDS011;8723;51.502;6.918;2022-08-19T08:33:50;30.35;;;27.10;;
17214;SDS011;8723;51.502;6.918;2022-08-19T08:36:17;17.83;;;15.90;;
17214;SDS011;8723;51.502;6.918;2022-08-19T08:38:44;26.50;;;23.77;;
17214;SDS011;8723;51.502;6.918;2022-08-19T08:41:13;28.70;;;25.67;;
17214;SDS011;8723;51.502;6.918;2022-08-19T08:43:44;34.42;;;30.55;;
17214;SDS011;8723;51.502;6.918;2022-08-19T08:46:13;31.83;;;28.52;;
17214;SDS011;8723;51.502;6.918;2022-08-19T08:48:47;29.02;;;25.17;;
17214;SDS011;8723;51.502;6.918;2022-08-19T08:51:16;34.28;;;29.27;;
17214;SDS011;8723;51.502;6.918;2022-08-19T08:53:45;29.15;;;26.00;;
17214;SDS011;8723;51.502;6.918;2022-08-19T08:56:13;29.50;;;24.15;;
17214;SDS011;8723;51.502;6.918;2022-08-19T08:58:43;22.10;;;19.42;;
17214;SDS011;8723;51.502;6.918;2022-08-19T09:01:12;21.02;;;18.95;;
17214;SDS011;8723;51.502;6.918;2022-08-19T09:03:40;25.80;;;23.10;;
17214;SDS011;8723;51.502;6.918;2022-08-19T09:06:12;24.83;;;21.73;;
17214;SDS011;8723;51.502;6.918;2022-08-19T09:08:45;24.15;;;20.95;;
17214;SDS011;8723;51.502;6.918;2022-08-19T09:11:15;16.38;;;14.23;;
17214;SDS011;8723;51.502;6.918;2022-08-19T09:13:49;21.80;;;18.03;;
17214;SDS011;8723;51.502;6.918;2022-08-19T09:16:20;17.03;;;13.77;;
17214;SDS011;8723;51.502;6.918;2022-08-19T09:18:49;18.95;;;14.90;;
17214;SDS011;8723;51.502;6.918;2022-08-19T09:21:20;15.55;;;12.35;;
17214;SDS011;8723;51.502;6.918;2022-08-19T09:23:47;16.90;;;15.15;;
17214;SDS011;8723;51.502;6.918;2022-08-19T09:26:16;14.00;;;12.50;;
17214;SDS011;8723;51.502;6.918;2022-08-19T09:28:45;12.85;;;11.38;;
17214;SDS011;8723;51.502;6.918;2022-08-19T09:31:13;18.73;;;15.55;;
17214;SDS011;8723;51.502;6.918;2022-08-19T09:33:40;15.07;;;13.55;;
17214;SDS011;8723;51.502;6.918;2022-08-19T09:36:09;14.60;;;13.00;;
17214;SDS011;8723;51.502;6.918;2022-08-19T09:38:39;13.23;;;11.88;;
17214;SDS011;8723;51.502;6.918;2022-08-19T09:41:07;14.07;;;12.60;;
17214;SDS011;8723;51.502;6.918;2022-08-19T09:43:35;13.60;;;11.60;;
17214;SDS011;8723;51.502;6.918;2022-08-19T09:46:02;16.90;;;14.50;;
17214;SDS011;8723;51.502;6.918;2022-08-19T09:48:31;11.93;;;10.68;;
17214;SDS011;8723;51.502;6.918;2022-08-19T09:51:02;16.73;;;13.48;;
17214;SDS011;8723;51.502;6.918;2022-08-19T09:53:29;13.75;;;12.25;;
17214;SDS011;8723;51.502;6.918;2022-08-19T09:55:57;15.25;;;13.60;;
17214;SDS011;8723;51.502;6.918;2022-08-19T09:58:25;16.83;;;14.82;;
17214;SDS011;8723;51.502;6.918;2022-08-19T10:00:52;16.13;;;14.43;;
17214;SDS011;8723;51.502;6.918;2022-08-19T10:03:20;20.60;;;18.50;;
17214;SDS011;8723;51.502;6.918;2022-08-19T10:05:47;16.05;;;14.45;;
17214;SDS011;8723;51.502;6.918;2022-08-19T10:08:15;21.27;;;19.08;;
17214;SDS011;8723;51.502;6.918;2022-08-19T10:10:42;14.10;;;12.70;;
17214;SDS011;8723;51.502;6.918;2022-08-19T10:13:11;17.55;;;15.73;;
17214;SDS011;8723;51.502;6.918;2022-08-19T10:15:39;20.73;;;18.52;;
17214;SDS011;8723;51.502;6.918;2022-08-19T10:18:06;23.60;;;17.77;;
17214;SDS011;8723;51.502;6.918;2022-08-19T10:20:33;18.92;;;16.85;;
17214;SDS011;8723;51.502;6.918;2022-08-19T10:23:02;23.20;;;20.83;;
17214;SDS011;8723;51.502;6.918;2022-08-19T10:25:29;23.17;;;20.27;;
17214;SDS011;8723;51.502;6.918;2022-08-19T10:27:56;17.88;;;16.15;;
17214;SDS011;8723;51.502;6.918;2022-08-19T10:30:25;20.88;;;18.70;;
17214;SDS011;8723;51.502;6.918;2022-08-19T10:32:52;24.17;;;21.58;;
17214;SDS011;8723;51.502;6.918;2022-08-19T10:35:19;20.08;;;18.08;;
17214;SDS011;8723;51.502;6.918;2022-08-19T10:37:47;23.70;;;21.27;;
17214;SDS011;8723;51.502;6.918;2022-08-19T10:40:14;19.90;;;17.80;;
17214;SDS011;8723;51.502;6.918;2022-08-19T10:42:41;18.73;;;16.80;;
17214;SDS011;8723;51.502;6.918;2022-08-19T10:45:08;22.27;;;20.05;;
17214;SDS011;8723;51.502;6.918;2022-08-19T10:47:37;17.83;;;16.10;;
17214;SDS011;8723;51.502;6.918;2022-08-19T10:50:04;22.60;;;19.73;;
17214;SDS011;8723;51.502;6.918;2022-08-19T10:52:49;22.15;;;19.90;;
17214;SDS011;8723;51.502;6.918;2022-08-19T10:55:18;25.45;;;22.40;;
17214;SDS011;8723;51.502;6.918;2022-08-19T10:58:03;21.50;;;19.00;;
17214;SDS011;8723;51.502;6.918;2022-08-19T11:00:30;20.20;;;18.17;;
17214;SDS011;8723;51.502;6.918;2022-08-19T11:02:59;19.10;;;17.17;;
17214;SDS011;8723;51.502;6.918;2022-08-19T11:05:26;17.83;;;16.07;;
17214;SDS011;8723;51.502;6.918;2022-08-19T11:07:53;14.38;;;12.98;;
17214;SDS011;8723;51.502;6.918;2022-08-19T11:10:20;17.80;;;16.10;;
17214;SDS011;8723;51.502;6.918;2022-08-19T11:12:48;17.65;;;15.75;;
17214;SDS011;8723;51.502;6.918;2022-08-19T11:15:18;16.23;;;14.63;;
17214;SDS011;8723;51.502;6.918;2022-08-19T11:17:45;19.33;;;17.45;;
17214;SDS011;8723;51.502;6.918;2022-08-19T11:20:14;17.02;;;15.45;;
17214;SDS011;8723;51.502;6.918;2022-08-19T11:22:41;13.97;;;12.60;;
17214;SDS011;8723;51.502;6.918;2022-08-19T11:25:09;14.53;;;13.00;;
17214;SDS011;8723;51.502;6.918;2022-08-19T11:27:37;13.20;;;12.00;;
17214;SDS011;8723;51.502;6.918;2022-08-19T11:30:07;12.48;;;11.18;;
17214;SDS011;8723;51.502;6.918;2022-08-19T11:32:34;12.13;;;10.93;;
17214;SDS011;8723;51.502;6.918;2022-08-19T11:35:01;12.30;;;11.13;;
17214;SDS011;8723;51.502;6.918;2022-08-19T11:37:30;13.52;;;12.23;;
17214;SDS011;8723;51.502;6.918;2022-08-19T11:40:04;10.80;;;9.70;;
17214;SDS011;8723;51.502;6.918;2022-08-19T11:42:31;13.13;;;11.73;;
17214;SDS011;8723;51.502;6.918;2022-08-19T11:45:27;10.23;;;9.32;;
17214;SDS011;8723;51.502;6.918;2022-08-19T11:47:55;9.30;;;8.48;;
17214;SDS011;8723;51.502;6.918;2022-08-19T11:50:22;9.75;;;8.85;;
17214;SDS011;8723;51.502;6.918;2022-08-19T11:52:51;10.68;;;9.68;;
17214;SDS011;8723;51.502;6.918;2022-08-19T11:55:20;9.35;;;8.38;;
17214;SDS011;8723;51.502;6.918;2022-08-19T11:57:47;9.90;;;9.00;;
17214;SDS011;8723;51.502;6.918;2022-08-19T12:00:15;10.70;;;9.55;;
17214;SDS011;8723;51.502;6.918;2022-08-19T12:02:42;9.98;;;8.98;;
17214;SDS011;8723;51.502;6.918;2022-08-19T12:05:09;10.65;;;9.63;;
17214;SDS011;8723;51.502;6.918;2022-08-19T12:07:36;12.23;;;9.15;;
17214;SDS011;8723;51.502;6.918;2022-08-19T12:10:05;9.65;;;8.75;;
17214;SDS011;8723;51.502;6.918;2022-08-19T12:12:32;9.02;;;8.15;;
17214;SDS011;8723;51.502;6.918;2022-08-19T12:14:59;8.60;;;7.82;;
17214;SDS011;8723;51.502;6.918;2022-08-19T12:17:27;10.63;;;9.50;;
17214;SDS011;8723;51.502;6.918;2022-08-19T12:19:55;10.88;;;9.57;;
17214;SDS011;8723;51.502;6.918;2022-08-19T12:22:22;8.52;;;7.82;;
17214;SDS011;8723;51.502;6.918;2022-08-19T12:24:50;8.80;;;8.02;;
17214;SDS011;8723;51.502;6.918;2022-08-19T12:27:19;8.77;;;7.97;;
17214;SDS011;8723;51.502;6.918;2022-08-19T12:29:47;8.00;;;7.20;;
17214;SDS011;8723;51.502;6.918;2022-08-19T12:32:14;8.45;;;7.53;;
17214;SDS011;8723;51.502;6.918;2022-08-19T12:34:41;7.47;;;6.78;;
17214;SDS011;8723;51.502;6.918;2022-08-19T12:37:09;7.50;;;6.80;;
17214;SDS011;8723;51.502;6.918;2022-08-19T12:39:37;7.97;;;7.05;;
17214;SDS011;8723;51.502;6.918;2022-08-19T12:42:05;7.78;;;6.65;;
17214;SDS011;8723;51.502;6.918;2022-08-19T12:44:35;6.82;;;6.32;;
17214;SDS011;8723;51.502;6.918;2022-08-19T12:47:03;7.38;;;6.78;;
17214;SDS011;8723;51.502;6.918;2022-08-19T12:49:30;6.78;;;6.18;;
17214;SDS011;8723;51.502;6.918;2022-08-19T12:51:58;7.40;;;6.45;;
17214;SDS011;8723;51.502;6.918;2022-08-19T12:54:26;6.95;;;6.25;;
17214;SDS011;8723;51.502;6.918;2022-08-19T12:56:53;6.57;;;6.07;;
17214;SDS011;8723;51.502;6.918;2022-08-19T12:59:20;6.45;;;5.95;;
17214;SDS011;8723;51.502;6.918;2022-08-19T13:01:49;7.13;;;6.50;;
17214;SDS011;8723;51.502;6.918;2022-08-19T13:04:16;8.60;;;6.40;;
17214;SDS011;8723;51.502;6.918;2022-08-19T13:06:43;7.80;;;6.38;;
17214;SDS011;8723;51.502;6.918;2022-08-19T13:09:10;6.82;;;5.78;;
17214;SDS011;8723;51.502;6.918;2022-08-19T13:11:38;5.30;;;4.90;;
17214;SDS011;8723;51.502;6.918;2022-08-19T13:14:05;5.35;;;4.95;;
17214;SDS011;8723;51.502;6.918;2022-08-19T13:16:32;7.40;;;5.90;;
17214;SDS011;8723;51.502;6.918;2022-08-19T13:19:01;7.15;;;4.95;;
17214;SDS011;8723;51.502;6.918;2022-08-19T13:21:30;4.95;;;4.50;;
17214;SDS011;8723;51.502;6.918;2022-08-19T13:23:57;5.05;;;4.30;;
17214;SDS011;8723;51.502;6.918;2022-08-19T13:26:25;5.72;;;4.80;;
17214;SDS011;8723;51.502;6.918;2022-08-19T13:28:52;6.22;;;4.82;;
17214;SDS011;8723;51.502;6.918;2022-08-19T13:31:39;5.38;;;4.43;;
17214;SDS011;8723;51.502;6.918;2022-08-19T13:34:29;10.73;;;4.47;;
17214;SDS011;8723;51.502;6.918;2022-08-19T13:36:57;5.78;;;5.18;;
17214;SDS011;8723;51.502;6.918;2022-08-19T13:39:25;5.20;;;4.70;;
17214;SDS011;8723;51.502;6.918;2022-08-19T13:41:52;6.88;;;5.47;;
17214;SDS011;8723;51.502;6.918;2022-08-19T13:44:20;5.80;;;5.10;;
17214;SDS011;8723;51.502;6.918;2022-08-19T13:46:47;5.80;;;4.63;;
17214;SDS011;8723;51.502;6.918;2022-08-19T13:49:17;7.07;;;4.88;;
17214;SDS011;8723;51.502;6.918;2022-08-19T13:51:46;5.22;;;4.60;;
17214;SDS011;8723;51.502;6.918;2022-08-19T13:54:13;6.78;;;5.00;;
17214;SDS011;8723;51.502;6.918;2022-08-19T13:56:41;7.45;;;5.70;;
17214;SDS011;8723;51.502;6.918;2022-08-19T13:59:08;7.32;;;5.38;;
17214;SDS011;8723;51.502;6.918;2022-08-19T14:01:36;6.00;;;5.28;;
17214;SDS011;8723;51.502;6.918;2022-08-19T14:04:03;7.70;;;5.60;;
17214;SDS011;8723;51.502;6.918;2022-08-19T14:06:31;5.70;;;5.10;;
17214;SDS011;8723;51.502;6.918;2022-08-19T14:09:00;5.88;;;5.28;;
17214;SDS011;8723;51.502;6.918;2022-08-19T14:11:28;6.15;;;5.55;;
17214;SDS011;8723;51.502;6.918;2022-08-19T14:13:55;5.78;;;5.28;;
17214;SDS011;8723;51.502;6.918;2022-08-19T14:16:22;7.45;;;6.20;;
17214;SDS011;8723;51.502;6.918;2022-08-19T14:18:49;6.50;;;5.93;;
17214;SDS011;8723;51.502;6.918;2022-08-19T14:21:19;6.70;;;6.13;;
17214;SDS011;8723;51.502;6.918;2022-08-19T14:23:48;6.78;;;6.18;;
17214;SDS011;8723;51.502;6.918;2022-08-19T14:26:17;10.07;;;5.73;;
17214;SDS011;8723;51.502;6.918;2022-08-19T14:28:45;6.45;;;5.82;;
17214;SDS011;8723;51.502;6.918;2022-08-19T14:31:13;6.63;;;5.90;;
17214;SDS011;8723;51.502;6.918;2022-08-19T14:33:45;6.07;;;5.47;;
17214;SDS011;8723;51.502;6.918;2022-08-19T14:36:13;7.38;;;5.88;;
17214;SDS011;8723;51.502;6.918;2022-08-19T14:38:40;7.47;;;6.78;;
17214;SDS011;8723;51.502;6.918;2022-08-19T14:41:08;7.53;;;6.78;;
17214;SDS011;8723;51.502;6.918;2022-08-19T14:43:37;7.30;;;6.55;;
17214;SDS011;8723;51.502;6.918;2022-08-19T14:46:04;7.43;;;6.73;;
17214;SDS011;8723;51.502;6.918;2022-08-19T14:48:32;8.43;;;7.73;;
17214;SDS011;8723;51.502;6.918;2022-08-19T14:51:01;7.57;;;6.83;;
17214;SDS011;8723;51.502;6.918;2022-08-19T14:53:28;7.38;;;6.07;;
17214;SDS011;8723;51.502;6.918;2022-08-19T14:55:55;7.25;;;6.55;;